createdAt,value
2023-02-20T00:00:29.982Z,5.23
2023-02-20T00:02:56.761Z,9.77
2023-02-20T00:05:23.279Z,8.20
2023-02-20T00:07:49.836Z,6.87
2023-02-20T00:10:17.084Z,7.50
2023-02-20T00:12:43.842Z,5.53
2023-02-20T00:15:13.324Z,5.80
2023-02-20T00:17:39.795Z,12.47
2023-02-20T00:20:06.955Z,4.47
2023-02-20T00:22:33.526Z,5.33
2023-02-20T00:25:00.023Z,6.33
2023-02-20T00:27:26.605Z,8.23
2023-02-20T00:29:53.086Z,8.37
2023-02-20T00:32:19.547Z,7.13
2023-02-20T00:34:46.002Z,6.03
2023-02-20T00:37:12.769Z,6.97
2023-02-20T00:39:39.278Z,8.37
2023-02-20T00:42:05.880Z,6.83
2023-02-20T00:44:32.351Z,5.77
2023-02-20T00:46:58.809Z,8.30
2023-02-20T00:49:25.320Z,6.17
2023-02-20T00:51:51.807Z,8.37
2023-02-20T00:54:18.324Z,4.57
2023-02-20T00:56:44.800Z,6.80
2023-02-20T00:59:11.281Z,6.30
2023-02-20T01:01:37.869Z,7.10
2023-02-20T01:04:04.527Z,4.93
2023-02-20T01:06:31.114Z,6.37
2023-02-20T01:08:57.558Z,6.00
2023-02-20T01:11:24.042Z,6.23
2023-02-20T01:13:50.756Z,6.73
2023-02-20T01:16:17.231Z,3.93
2023-02-20T01:18:43.733Z,7.80
2023-02-20T01:21:10.170Z,5.53
2023-02-20T01:23:36.914Z,5.13
2023-02-20T01:26:03.417Z,4.63
2023-02-20T01:28:29.908Z,5.37
2023-02-20T01:30:56.471Z,4.60
2023-02-20T01:33:22.946Z,5.33
2023-02-20T01:35:49.399Z,4.13
2023-02-20T01:38:15.870Z,4.07
2023-02-20T01:40:47.078Z,6.93
2023-02-20T01:43:13.535Z,5.37
2023-02-20T01:45:41.043Z,5.40
2023-02-20T01:48:19.888Z,6.37
2023-02-20T01:50:46.806Z,6.43
2023-02-20T01:53:18.902Z,6.50
2023-02-20T01:55:50.081Z,8.20
2023-02-20T01:58:22.434Z,7.13
2023-02-20T02:00:49.199Z,5.47
2023-02-20T02:03:22.883Z,6.57
2023-02-20T02:05:53.518Z,9.27
2023-02-20T02:08:22.301Z,6.63
2023-02-20T02:10:54.413Z,7.70
2023-02-20T02:13:21.536Z,5.87
2023-02-20T02:15:52.052Z,9.00
2023-02-20T02:18:21.645Z,5.43
2023-02-20T02:21:00.390Z,5.40
2023-02-20T02:24:00.908Z,5.70
2023-02-20T02:26:46.112Z,7.20
2023-02-20T02:29:31.412Z,6.03
2023-02-20T02:32:06.929Z,4.80
2023-02-20T02:34:48.936Z,5.60
2023-02-20T02:37:20.017Z,5.97
2023-02-20T02:40:14.816Z,6.23
2023-02-20T02:42:53.459Z,6.87
2023-02-20T02:45:29.744Z,5.13
2023-02-20T02:48:08.394Z,8.43
2023-02-20T02:50:38.870Z,6.77
2023-02-20T02:53:08.315Z,5.97
2023-02-20T02:55:35.257Z,7.43
2023-02-20T02:58:03.326Z,8.53
2023-02-20T03:00:39.293Z,6.67
2023-02-20T03:03:27.227Z,9.30
2023-02-20T03:05:56.722Z,6.97
2023-02-20T03:08:33.472Z,6.83
2023-02-20T03:11:04.717Z,7.27
2023-02-20T03:13:57.239Z,7.13
2023-02-20T03:16:30.042Z,9.67
2023-02-20T03:18:58.303Z,6.63
2023-02-20T03:21:26.038Z,7.27
2023-02-20T03:23:58.473Z,9.97
2023-02-20T03:26:34.564Z,9.13
2023-02-20T03:29:04.262Z,8.33
2023-02-20T03:32:11.255Z,10.63
2023-02-20T03:34:56.550Z,9.47
2023-02-20T03:37:43.597Z,9.43
2023-02-20T03:40:30.625Z,12.10
2023-02-20T03:43:19.654Z,9.40
2023-02-20T03:45:47.516Z,8.93
2023-02-20T03:48:22.292Z,10.07
2023-02-20T03:50:48.883Z,11.40
2023-02-20T03:53:15.847Z,13.73
2023-02-20T03:55:42.478Z,12.70
2023-02-20T03:58:11.912Z,8.70
2023-02-20T04:00:45.498Z,10.57
2023-02-20T04:03:16.677Z,10.23
2023-02-20T04:05:45.251Z,8.67
2023-02-20T04:08:16.389Z,10.77
2023-02-20T04:10:49.024Z,11.47
2023-02-20T04:13:16.300Z,11.80
2023-02-20T04:15:43.668Z,13.93
2023-02-20T04:18:12.535Z,11.60
2023-02-20T04:20:39.272Z,12.27
2023-02-20T04:23:14.051Z,12.33
2023-02-20T04:26:00.717Z,12.03
2023-02-20T04:28:27.505Z,11.63
2023-02-20T04:30:54.391Z,12.80
2023-02-20T04:33:21.410Z,12.20
2023-02-20T04:35:48.118Z,11.23
2023-02-20T04:38:14.629Z,11.47
2023-02-20T04:40:41.086Z,12.97
2023-02-20T04:43:07.546Z,11.60
2023-02-20T04:45:34.043Z,11.97
2023-02-20T04:48:00.560Z,12.50
2023-02-20T04:50:34.142Z,13.83
2023-02-20T04:53:01.218Z,12.87
2023-02-20T04:55:28.050Z,13.93
2023-02-20T04:57:56.221Z,14.47
2023-02-20T05:00:23.889Z,14.73
2023-02-20T05:02:51.100Z,15.63
2023-02-20T05:05:25.458Z,13.37
2023-02-20T05:08:01.133Z,13.97
2023-02-20T05:10:29.346Z,14.13
2023-02-20T05:12:56.474Z,15.63
2023-02-20T05:15:23.480Z,18.17
2023-02-20T05:17:50.130Z,16.20
2023-02-20T05:20:17.890Z,12.67
2023-02-20T05:22:48.319Z,13.93
2023-02-20T05:25:15.595Z,14.10
2023-02-20T05:27:42.642Z,15.53
2023-02-20T05:30:10.185Z,12.87
2023-02-20T05:32:37.556Z,16.90
2023-02-20T05:35:04.068Z,15.90
2023-02-20T05:37:32.069Z,16.37
2023-02-20T05:39:59.907Z,17.73
2023-02-20T05:42:26.394Z,15.67
2023-02-20T05:44:52.829Z,14.97
2023-02-20T05:47:19.278Z,17.07
2023-02-20T05:49:46.647Z,14.33
2023-02-20T05:52:13.221Z,15.77
2023-02-20T05:54:40.422Z,16.00
2023-02-20T05:57:06.990Z,16.53
2023-02-20T05:59:33.461Z,17.07
2023-02-20T06:02:00.956Z,16.63
2023-02-20T06:04:27.903Z,15.53
2023-02-20T06:06:54.447Z,16.90
2023-02-20T06:09:20.889Z,16.10
2023-02-20T06:11:55.968Z,15.30
2023-02-20T06:14:24.320Z,16.63
2023-02-20T06:16:50.791Z,15.50
2023-02-20T06:19:24.517Z,14.77
2023-02-20T06:21:53.634Z,14.60
2023-02-20T06:24:20.843Z,17.40
2023-02-20T06:26:47.322Z,16.70
2023-02-20T06:29:14.955Z,17.73
2023-02-20T06:31:41.510Z,18.20
2023-02-20T06:34:09.279Z,16.00
2023-02-20T06:36:37.879Z,18.93
2023-02-20T06:39:06.086Z,15.57
2023-02-20T06:41:32.515Z,16.80
2023-02-20T06:43:59.176Z,17.07
2023-02-20T06:46:25.876Z,21.90
2023-02-20T06:48:58.052Z,18.77
2023-02-20T06:51:29.791Z,15.10
2023-02-20T06:53:56.458Z,18.37
2023-02-20T06:56:26.456Z,16.73
2023-02-20T06:58:53.992Z,18.27
2023-02-20T07:01:23.084Z,16.40
2023-02-20T07:03:50.096Z,16.90
2023-02-20T07:06:17.307Z,18.97
2023-02-20T07:08:43.882Z,18.47
2023-02-20T07:11:11.269Z,19.57
2023-02-20T07:13:37.764Z,18.43
2023-02-20T07:16:04.384Z,19.43
2023-02-20T07:18:30.874Z,20.03
2023-02-20T07:20:57.340Z,18.53
2023-02-20T07:23:24.100Z,18.80
2023-02-20T07:25:50.642Z,19.73
2023-02-20T07:28:19.213Z,16.77
2023-02-20T07:30:47.291Z,17.63
2023-02-20T07:33:13.828Z,18.60
2023-02-20T07:35:40.298Z,16.30
2023-02-20T07:38:07.138Z,20.70
2023-02-20T07:40:33.589Z,17.43
2023-02-20T07:43:00.113Z,16.60
2023-02-20T07:45:26.985Z,19.73
2023-02-20T07:47:53.477Z,18.27
2023-02-20T07:50:19.956Z,20.90
2023-02-20T07:52:46.414Z,18.33
2023-02-20T07:55:16.920Z,21.17
2023-02-20T07:57:46.490Z,21.00
2023-02-20T08:00:15.876Z,17.73
2023-02-20T08:02:42.309Z,16.70
2023-02-20T08:05:09.119Z,18.57
2023-02-20T08:07:35.535Z,14.50
2023-02-20T08:10:02.283Z,17.47
2023-02-20T08:12:28.819Z,18.47
2023-02-20T08:14:55.275Z,20.13
2023-02-20T08:17:21.740Z,13.97
2023-02-20T08:19:48.188Z,12.60
2023-02-20T08:22:14.628Z,15.83
2023-02-20T08:24:41.096Z,17.37
2023-02-20T08:27:07.560Z,18.17
2023-02-20T08:29:34.085Z,14.93
2023-02-20T08:32:00.659Z,16.23
2023-02-20T08:34:27.139Z,18.90
2023-02-20T08:36:53.676Z,14.57
2023-02-20T08:39:20.179Z,13.63
2023-02-20T08:41:47.425Z,15.60
2023-02-20T08:44:14.633Z,14.10
2023-02-20T08:46:48.460Z,16.53
2023-02-20T08:49:16.828Z,13.67
2023-02-20T08:51:43.904Z,16.00
2023-02-20T08:54:10.371Z,13.63
2023-02-20T08:56:36.871Z,16.10
2023-02-20T08:59:03.344Z,16.37
2023-02-20T09:01:29.817Z,20.73
2023-02-20T09:03:56.381Z,16.90
2023-02-20T09:06:25.899Z,16.30
2023-02-20T09:08:52.861Z,15.60
2023-02-20T09:11:20.099Z,11.03
2023-02-20T09:13:47.953Z,18.87
2023-02-20T09:16:16.711Z,15.60
2023-02-20T09:18:44.425Z,15.93
2023-02-20T09:21:12.351Z,13.30
2023-02-20T09:23:39.117Z,14.83
2023-02-20T09:26:06.002Z,17.27
2023-02-20T09:28:32.593Z,19.57
2023-02-20T09:31:00.627Z,16.33
2023-02-20T09:33:28.222Z,15.60
2023-02-20T09:35:55.136Z,12.97
2023-02-20T09:38:22.734Z,14.90
2023-02-20T09:40:51.101Z,18.13
2023-02-20T09:43:23.722Z,17.23
2023-02-20T09:45:57.499Z,14.20
2023-02-20T09:48:34.707Z,16.17
2023-02-20T09:51:11.871Z,16.23
2023-02-20T09:54:05.732Z,15.93
2023-02-20T09:56:35.486Z,18.10
2023-02-20T09:59:22.631Z,19.13
2023-02-20T10:01:55.695Z,16.00
2023-02-20T10:04:33.734Z,14.60
2023-02-20T10:07:21.569Z,16.13
2023-02-20T10:09:48.131Z,14.80
2023-02-20T10:12:29.762Z,16.17
2023-02-20T10:15:27.301Z,17.67
2023-02-20T10:17:53.863Z,18.70
2023-02-20T10:20:29.842Z,17.87
2023-02-20T10:23:17.596Z,17.33
2023-02-20T10:25:48.454Z,18.53
2023-02-20T10:28:18.187Z,18.87
2023-02-20T10:30:45.839Z,18.17
2023-02-20T10:33:35.979Z,23.13
2023-02-20T10:36:09.785Z,17.43
2023-02-20T10:38:41.534Z,19.47
2023-02-20T10:41:25.433Z,16.10
2023-02-20T10:44:02.977Z,18.17
2023-02-20T10:46:47.830Z,16.97
2023-02-20T10:49:21.550Z,21.03
2023-02-20T10:51:50.610Z,16.30
2023-02-20T10:54:18.509Z,17.73
2023-02-20T10:56:58.502Z,18.90
2023-02-20T10:59:48.325Z,18.03
2023-02-20T11:02:21.798Z,22.23
2023-02-20T11:04:52.775Z,19.63
2023-02-20T11:07:19.936Z,17.93
2023-02-20T11:09:46.567Z,17.50
2023-02-20T11:12:24.677Z,17.57
2023-02-20T11:14:52.277Z,20.70
2023-02-20T11:17:26.292Z,22.80
2023-02-20T11:19:54.134Z,15.07
2023-02-20T11:22:44.012Z,13.40
2023-02-20T11:25:34.773Z,16.50
2023-02-20T11:28:18.971Z,12.80
2023-02-20T11:30:48.016Z,20.37
2023-02-20T11:33:18.157Z,17.87
2023-02-20T11:35:47.158Z,16.57
2023-02-20T11:38:27.853Z,18.10
2023-02-20T11:40:54.886Z,22.47
2023-02-20T11:43:26.383Z,18.37
2023-02-20T11:46:22.006Z,18.43
2023-02-20T11:48:54.663Z,16.13
2023-02-20T11:51:40.755Z,15.50
2023-02-20T11:54:14.651Z,21.63
2023-02-20T11:57:01.372Z,20.53
2023-02-20T11:59:37.205Z,16.40
2023-02-20T12:02:17.365Z,19.40
2023-02-20T12:04:45.592Z,18.80
2023-02-20T12:07:26.867Z,15.13
2023-02-20T12:09:56.350Z,14.37
2023-02-20T12:12:23.935Z,18.90
2023-02-20T12:14:50.905Z,18.17
2023-02-20T12:17:32.849Z,20.33
2023-02-20T12:20:20.103Z,20.63
2023-02-20T12:22:58.420Z,18.17
2023-02-20T12:25:28.297Z,18.00
2023-02-20T12:28:00.037Z,18.73
2023-02-20T12:30:55.471Z,19.90
2023-02-20T12:33:35.412Z,17.17
2023-02-20T12:36:25.713Z,21.53
2023-02-20T12:39:14.729Z,16.43
2023-02-20T12:41:59.790Z,20.07
2023-02-20T12:44:35.629Z,23.87
2023-02-20T12:47:17.333Z,16.83
2023-02-20T12:52:39.014Z,23.53
2023-02-20T12:55:13.873Z,16.37
2023-02-20T12:57:49.673Z,18.07
2023-02-20T13:00:28.965Z,18.87
2023-02-20T13:03:00.208Z,22.57
2023-02-20T13:05:28.559Z,22.20
2023-02-20T13:08:01.740Z,20.47
2023-02-20T13:10:34.459Z,23.37
2023-02-20T13:13:01.342Z,19.10
2023-02-20T13:15:36.985Z,24.77
2023-02-20T13:18:41.908Z,23.10
2023-02-20T13:21:14.731Z,23.60
2023-02-20T13:23:42.152Z,21.73
2023-02-20T13:26:27.319Z,20.93
2023-02-20T13:28:54.218Z,20.40
2023-02-20T13:31:23.374Z,22.47
2023-02-20T13:33:50.976Z,20.20
2023-02-20T13:36:29.730Z,23.27
2023-02-20T13:39:21.221Z,21.40
2023-02-20T13:41:54.203Z,21.37
2023-02-20T13:44:44.547Z,20.63
2023-02-20T13:47:22.122Z,19.37
2023-02-20T13:49:58.469Z,20.33
2023-02-20T13:52:38.555Z,19.50
2023-02-20T13:55:11.314Z,20.03
2023-02-20T13:57:46.986Z,20.33
2023-02-20T14:00:19.690Z,22.50
2023-02-20T14:02:46.150Z,16.93
2023-02-20T14:05:39.304Z,17.33
2023-02-20T14:08:05.877Z,19.50
2023-02-20T14:10:37.422Z,21.20
2023-02-20T14:13:14.843Z,22.10
2023-02-20T14:15:56.031Z,24.53
2023-02-20T14:18:33.148Z,20.87
2023-02-20T14:21:09.595Z,19.30
2023-02-20T14:23:36.402Z,26.10
2023-02-20T14:26:05.390Z,20.50
2023-02-20T14:28:36.666Z,19.83
2023-02-20T14:31:21.064Z,18.10
2023-02-20T14:33:49.211Z,16.70
2023-02-20T14:36:43.062Z,18.87
2023-02-20T14:39:39.559Z,21.47
2023-02-20T14:42:06.675Z,25.43
2023-02-20T14:44:33.599Z,18.00
2023-02-20T14:47:12.575Z,16.43
2023-02-20T14:49:39.066Z,15.40
2023-02-20T14:52:14.891Z,19.40
2023-02-20T14:54:43.119Z,18.00
2023-02-20T14:57:13.933Z,18.60
2023-02-20T14:59:40.471Z,14.50
2023-02-20T15:02:34.121Z,17.53
2023-02-20T15:05:05.206Z,15.07
2023-02-20T15:07:32.078Z,11.53
2023-02-20T15:10:01.983Z,16.50
2023-02-20T15:12:31.502Z,15.57
2023-02-20T15:15:09.600Z,17.20
2023-02-20T15:17:40.299Z,14.13
2023-02-20T15:20:32.441Z,12.40
2023-02-20T15:23:32.942Z,15.37
2023-02-20T15:26:34.805Z,11.67
2023-02-20T15:29:25.952Z,9.60
2023-02-20T15:32:00.911Z,14.00
2023-02-20T15:34:34.240Z,12.03
2023-02-20T15:37:11.792Z,14.23
2023-02-20T15:39:41.540Z,15.67
2023-02-20T15:42:12.163Z,13.50
2023-02-20T15:44:38.827Z,10.43
2023-02-20T15:47:05.375Z,15.80
2023-02-20T15:49:31.840Z,8.47
2023-02-20T15:52:07.843Z,13.80
2023-02-20T15:54:35.540Z,19.03
2023-02-20T15:57:02.251Z,17.27
2023-02-20T15:59:28.710Z,14.53
2023-02-20T16:01:55.348Z,13.77
2023-02-20T16:04:21.868Z,19.10
2023-02-20T16:06:48.530Z,14.23
2023-02-20T16:09:15.045Z,12.40
2023-02-20T16:11:44.106Z,19.23
2023-02-20T16:14:14.004Z,13.83
2023-02-20T16:16:44.964Z,13.13
2023-02-20T16:19:21.172Z,14.63
2023-02-20T16:21:58.855Z,19.90
2023-02-20T16:24:26.261Z,15.60
2023-02-20T16:26:52.835Z,21.20
2023-02-20T16:29:28.416Z,19.23
2023-02-20T16:31:54.882Z,19.47
2023-02-20T16:34:23.566Z,20.93
2023-02-20T16:36:51.044Z,19.23
2023-02-20T16:39:25.615Z,16.97
2023-02-20T16:41:53.212Z,19.00
2023-02-20T16:44:35.884Z,11.70
2023-02-20T16:47:02.714Z,14.63
2023-02-20T16:49:29.213Z,18.20
2023-02-20T16:52:01.819Z,17.07
2023-02-20T16:54:28.851Z,23.03
2023-02-20T16:56:55.579Z,25.97
2023-02-20T16:59:22.757Z,22.90
2023-02-20T17:01:51.581Z,16.40
2023-02-20T17:04:19.737Z,22.90
2023-02-20T17:06:46.812Z,23.60
2023-02-20T17:09:13.479Z,22.93
2023-02-20T17:11:40.062Z,20.80
2023-02-20T17:14:06.568Z,25.33
2023-02-20T17:16:33.057Z,23.80
2023-02-20T17:18:59.539Z,18.47
2023-02-20T17:21:26.393Z,23.40
2023-02-20T17:23:52.954Z,25.43
2023-02-20T17:26:19.448Z,28.00
2023-02-20T17:28:48.088Z,27.53
2023-02-20T17:31:14.954Z,22.97
2023-02-20T17:33:41.626Z,18.37
2023-02-20T17:36:08.325Z,21.97
2023-02-20T17:38:34.823Z,20.07
2023-02-20T17:41:01.288Z,19.37
2023-02-20T17:43:27.850Z,29.03
2023-02-20T17:45:54.386Z,18.10
2023-02-20T17:48:20.839Z,20.87
2023-02-20T17:50:47.309Z,17.67
2023-02-20T17:53:14.989Z,17.37
2023-02-20T17:55:41.508Z,20.97
2023-02-20T17:58:08.053Z,20.27
2023-02-20T18:00:34.625Z,17.27
2023-02-20T18:03:01.168Z,18.07
2023-02-20T18:05:27.649Z,25.10
2023-02-20T18:07:54.160Z,16.13
2023-02-20T18:10:20.892Z,17.23
2023-02-20T18:13:03.593Z,18.87
2023-02-20T18:15:35.117Z,25.33
2023-02-20T18:18:02.353Z,15.23
2023-02-20T18:20:28.912Z,17.63
2023-02-20T18:22:56.730Z,12.97
2023-02-20T18:25:34.546Z,11.37
2023-02-20T18:28:06.799Z,15.53
2023-02-20T18:30:34.675Z,12.70
2023-02-20T18:33:01.868Z,11.27
2023-02-20T18:35:28.420Z,15.07
2023-02-20T18:37:55.143Z,9.57
2023-02-20T18:40:23.725Z,12.73
2023-02-20T18:42:51.124Z,14.87
2023-02-20T18:45:19.831Z,12.03
2023-02-20T18:47:51.739Z,17.47
2023-02-20T18:50:19.226Z,15.73
2023-02-20T18:52:49.464Z,16.00
2023-02-20T18:55:20.220Z,13.70
2023-02-20T18:57:48.114Z,20.87
2023-02-20T19:00:24.248Z,15.10
2023-02-20T19:02:53.064Z,16.37
2023-02-20T19:05:20.704Z,15.97
2023-02-20T19:07:47.992Z,17.27
2023-02-20T19:10:19.408Z,9.67
2023-02-20T19:12:45.866Z,14.03
2023-02-20T19:15:12.597Z,8.20
2023-02-20T19:17:40.143Z,15.37
2023-02-20T19:20:09.706Z,13.63
2023-02-20T19:22:36.182Z,8.27
2023-02-20T19:25:03.827Z,15.90
2023-02-20T19:27:30.439Z,10.07
2023-02-20T19:29:56.902Z,14.70
2023-02-20T19:32:23.741Z,17.07
2023-02-20T19:34:50.394Z,11.90
2023-02-20T19:37:17.735Z,11.87
2023-02-20T19:39:44.395Z,14.20
2023-02-20T19:42:10.841Z,21.03
2023-02-20T19:44:38.698Z,16.67
2023-02-20T19:47:05.636Z,16.80
2023-02-20T19:49:33.569Z,17.80
2023-02-20T19:52:01.079Z,14.53
2023-02-20T19:54:29.335Z,14.17
2023-02-20T19:56:58.870Z,11.77
2023-02-20T19:59:25.993Z,14.83
2023-02-20T20:02:00.575Z,16.40
2023-02-20T20:04:29.022Z,12.87
2023-02-20T20:06:55.474Z,10.57
2023-02-20T20:09:35.107Z,11.77
2023-02-20T20:12:02.522Z,9.67
2023-02-20T20:14:29.036Z,11.67
2023-02-20T20:16:55.625Z,9.30
2023-02-20T20:19:22.138Z,9.80
2023-02-20T20:21:49.601Z,13.13
2023-02-20T20:24:16.132Z,9.07
2023-02-20T20:26:42.580Z,10.47
2023-02-20T20:29:09.127Z,8.37
2023-02-20T20:31:38.583Z,6.43
2023-02-20T20:34:06.048Z,11.57
2023-02-20T20:36:32.654Z,11.33
2023-02-20T20:38:59.494Z,9.67
2023-02-20T20:41:26.602Z,9.10
2023-02-20T20:43:56.094Z,6.23
2023-02-20T20:46:22.591Z,8.53
2023-02-20T20:48:49.645Z,11.03
2023-02-20T20:51:17.730Z,4.83
2023-02-20T20:53:45.496Z,7.97
2023-02-20T20:56:12.700Z,7.17
2023-02-20T20:58:39.886Z,5.63
2023-02-20T21:01:07.910Z,6.43
2023-02-20T21:03:34.391Z,5.07
2023-02-20T21:06:00.883Z,6.10
2023-02-20T21:08:27.453Z,5.13
2023-02-20T21:10:54.500Z,8.00
2023-02-20T21:13:20.950Z,10.40
2023-02-20T21:15:47.470Z,8.73
2023-02-20T21:18:14.342Z,5.87
2023-02-20T21:20:40.892Z,13.13
2023-02-20T21:23:09.229Z,8.43
2023-02-20T21:25:35.756Z,9.93
2023-02-20T21:28:02.536Z,11.70
2023-02-20T21:30:29.065Z,9.87
2023-02-20T21:32:55.630Z,14.17
2023-02-20T21:35:23.361Z,9.97
2023-02-20T21:37:49.875Z,11.53
2023-02-20T21:40:17.579Z,10.17
2023-02-20T21:43:02.694Z,11.63
2023-02-20T21:45:29.197Z,11.77
2023-02-20T21:47:55.710Z,13.57
2023-02-20T21:50:22.314Z,7.93
2023-02-20T21:52:49.734Z,15.73
2023-02-20T21:55:17.987Z,11.77
2023-02-20T21:57:44.520Z,16.60
2023-02-20T22:00:12.259Z,14.67
2023-02-20T22:02:39.005Z,10.93
2023-02-20T22:05:06.875Z,9.77
2023-02-20T22:07:52.089Z,15.33
2023-02-20T22:10:37.187Z,13.10
2023-02-20T22:13:22.413Z,12.87
2023-02-20T22:16:07.681Z,15.93
2023-02-20T22:18:52.918Z,14.60
2023-02-20T22:21:39.709Z,15.07
2023-02-20T22:24:37.355Z,11.13
2023-02-20T22:27:24.625Z,12.60
2023-02-20T22:30:09.913Z,9.43
2023-02-20T22:32:55.129Z,11.40
2023-02-20T22:35:40.363Z,13.73
2023-02-20T22:38:25.431Z,14.07
2023-02-20T22:41:10.477Z,11.33
2023-02-20T22:43:55.652Z,12.47
2023-02-20T22:46:41.495Z,11.07
2023-02-20T22:49:26.976Z,11.33
2023-02-20T22:52:12.024Z,14.63
2023-02-20T22:55:04.625Z,12.27
2023-02-20T22:57:50.673Z,13.07
2023-02-20T23:00:35.720Z,13.53
2023-02-20T23:03:21.014Z,16.60
2023-02-20T23:06:16.913Z,10.33
2023-02-20T23:09:03.236Z,12.27
2023-02-20T23:11:51.315Z,11.40
2023-02-20T23:14:36.408Z,16.23
2023-02-20T23:17:34.367Z,10.97
2023-02-20T23:20:20.478Z,14.20
2023-02-20T23:23:05.620Z,12.80
2023-02-20T23:25:50.814Z,14.17
2023-02-20T23:28:37.641Z,13.87
2023-02-20T23:31:23.558Z,14.60
2023-02-20T23:34:08.678Z,22.40
2023-02-20T23:36:53.718Z,11.87
2023-02-20T23:39:38.758Z,12.87
2023-02-20T23:42:23.826Z,11.23
2023-02-20T23:45:08.901Z,14.07
2023-02-20T23:47:53.983Z,15.00
2023-02-20T23:50:39.209Z,17.83
2023-02-20T23:53:24.336Z,12.60
2023-02-20T23:56:09.447Z,11.57
2023-02-20T23:58:54.509Z,12.40
